createdAt,value
2019-04-05T00:00:55.496Z,10.54
2019-04-05T00:01:55.484Z,10.54
2019-04-05T00:02:55.470Z,10.41
2019-04-05T00:03:55.488Z,10.52
2019-04-05T00:04:55.474Z,10.57
2019-04-05T00:05:55.495Z,10.58
2019-04-05T00:06:55.432Z,10.52
2019-04-05T00:07:55.416Z,10.67
2019-04-05T00:08:55.424Z,10.65
2019-04-05T00:09:55.400Z,10.60
2019-04-05T00:10:55.432Z,10.72
2019-04-05T00:11:55.379Z,10.65
2019-04-05T00:12:55.367Z,10.67
2019-04-05T00:13:55.390Z,10.65
2019-04-05T00:14:55.348Z,10.70
2019-04-05T00:15:55.332Z,10.70
2019-04-05T00:16:55.355Z,10.54
2019-04-05T00:17:55.337Z,10.49
2019-04-05T00:18:55.300Z,10.58
2019-04-05T00:19:55.347Z,10.49
2019-04-05T00:20:55.279Z,10.55
2019-04-05T00:21:55.272Z,10.45
2019-04-05T00:22:55.266Z,10.46
2019-04-05T00:23:55.242Z,10.42
2019-04-05T00:24:55.258Z,10.52
2019-04-05T00:25:55.224Z,10.42
2019-04-05T00:26:55.214Z,10.57
2019-04-05T00:27:55.207Z,10.55
2019-04-05T00:28:55.194Z,10.62
2019-04-05T00:29:55.220Z,10.55
2019-04-05T00:30:55.176Z,10.49
2019-04-05T00:31:55.166Z,10.52
2019-04-05T00:32:55.144Z,10.58
2019-04-05T00:33:55.135Z,10.64
2019-04-05T00:34:55.143Z,10.61
2019-04-05T00:35:55.111Z,10.48
2019-04-05T00:36:55.113Z,10.54
2019-04-05T00:37:55.087Z,10.57
2019-04-05T00:38:55.079Z,10.54
2019-04-05T00:39:55.127Z,10.43
2019-04-05T00:40:55.061Z,10.54
2019-04-05T00:41:55.052Z,10.58
2019-04-05T00:42:55.061Z,10.49
2019-04-05T00:43:55.025Z,10.54
2019-04-05T00:44:55.015Z,10.52
2019-04-05T00:45:55.015Z,10.45
2019-04-05T00:46:54.993Z,10.43
2019-04-05T00:47:55.040Z,10.48
2019-04-05T00:48:54.989Z,10.54
2019-04-05T00:49:54.959Z,10.54
2019-04-05T00:50:54.971Z,10.64
2019-04-05T00:51:54.937Z,10.65
2019-04-05T00:52:54.931Z,10.75
2019-04-05T00:53:54.916Z,10.68
2019-04-05T00:54:54.964Z,10.79
2019-04-05T00:55:54.915Z,10.78
2019-04-05T00:56:54.889Z,10.73
2019-04-05T00:57:54.880Z,10.79
2019-04-05T00:58:54.863Z,10.75
2019-04-05T00:59:54.852Z,10.75
2019-04-05T01:00:54.881Z,10.72
2019-04-05T01:01:54.853Z,10.91
2019-04-05T01:02:54.827Z,10.94
2019-04-05T01:03:54.844Z,10.87
2019-04-05T01:04:54.811Z,10.86
2019-04-05T01:05:54.787Z,10.87
2019-04-05T01:06:54.796Z,10.91
2019-04-05T01:07:54.765Z,10.79
2019-04-05T01:08:54.757Z,10.85
2019-04-05T01:09:54.752Z,10.87
2019-04-05T01:10:54.893Z,10.80
2019-04-05T01:11:54.772Z,10.78
2019-04-05T01:12:54.717Z,10.78
2019-04-05T01:13:54.712Z,10.78
2019-04-05T01:14:54.697Z,10.79
2019-04-05T01:15:54.685Z,10.83
2019-04-05T01:16:54.685Z,10.78
2019-04-05T01:17:54.654Z,10.79
2019-04-05T01:18:54.688Z,10.78
2019-04-05T01:19:54.636Z,10.85
2019-04-05T01:20:54.626Z,10.80
2019-04-05T01:21:54.629Z,10.75
2019-04-05T01:22:54.605Z,10.83
2019-04-05T01:23:54.592Z,10.76
2019-04-05T01:24:54.586Z,10.78
2019-04-05T01:25:54.568Z,10.73
2019-04-05T01:26:54.596Z,10.61
2019-04-05T01:27:54.574Z,10.64
2019-04-05T01:28:54.540Z,10.64
2019-04-05T01:29:54.526Z,10.58
2019-04-05T01:30:54.567Z,10.60
2019-04-05T01:31:54.510Z,10.54
2019-04-05T01:32:54.510Z,10.52
2019-04-05T01:33:54.482Z,10.45
2019-04-05T01:34:54.476Z,10.54
2019-04-05T01:35:54.499Z,10.55
2019-04-05T01:36:54.452Z,10.39
2019-04-05T01:37:54.454Z,10.41
2019-04-05T01:38:54.426Z,10.38
2019-04-05T01:39:54.428Z,10.34
2019-04-05T01:40:54.408Z,10.46
2019-04-05T01:41:54.430Z,10.48
2019-04-05T01:42:54.402Z,10.43
2019-04-05T01:43:54.374Z,10.41
2019-04-05T01:44:54.362Z,10.41
2019-04-05T01:45:54.438Z,10.41
2019-04-05T01:46:54.342Z,10.39
2019-04-05T01:47:54.378Z,10.31
2019-04-05T01:48:54.324Z,10.28
2019-04-05T01:49:54.309Z,10.28
2019-04-05T01:50:54.309Z,10.35
2019-04-05T01:51:54.290Z,10.26
2019-04-05T01:52:54.305Z,10.24
2019-04-05T01:53:54.270Z,10.35
2019-04-05T01:54:54.270Z,10.27
2019-04-05T01:55:54.264Z,10.31
2019-04-05T01:56:54.236Z,10.31
2019-04-05T01:57:54.224Z,10.27
2019-04-05T01:58:54.233Z,10.31
2019-04-05T01:59:54.200Z,10.23
2019-04-05T02:00:54.190Z,10.23
2019-04-05T02:01:54.214Z,10.21
2019-04-05T02:02:54.167Z,10.21
2019-04-05T02:03:54.185Z,10.26
2019-04-05T02:04:54.150Z,10.23
2019-04-05T02:05:54.169Z,10.10
2019-04-05T02:06:54.127Z,10.12
2019-04-05T02:07:54.115Z,10.02
2019-04-05T02:08:54.143Z,10.05
2019-04-05T02:09:54.131Z,9.99
2019-04-05T02:10:54.080Z,9.99
2019-04-05T02:11:54.075Z,9.83
2019-04-05T02:12:54.067Z,9.81
2019-04-05T02:13:54.067Z,9.80
2019-04-05T02:14:54.039Z,9.73
2019-04-05T02:16:05.591Z,9.66
2019-04-05T02:16:55.023Z,9.63
2019-04-05T02:17:54.037Z,9.63
2019-04-05T02:18:54.017Z,9.57
2019-04-05T02:19:53.994Z,9.60
2019-04-05T02:20:53.977Z,9.57
2019-04-05T02:21:53.965Z,9.52
2019-04-05T02:22:53.961Z,9.52
2019-04-05T02:23:53.961Z,9.45
2019-04-05T02:24:53.947Z,9.50
2019-04-05T02:25:53.930Z,9.40
2019-04-05T02:26:53.908Z,9.40
2019-04-05T02:27:53.901Z,9.41
2019-04-05T02:28:53.905Z,9.44
2019-04-05T02:29:53.887Z,9.32
2019-04-05T02:30:53.890Z,9.33
2019-04-05T02:31:53.855Z,9.27
2019-04-05T02:32:53.882Z,9.12
2019-04-05T02:33:53.854Z,9.23
2019-04-05T02:34:53.848Z,9.30
2019-04-05T02:35:53.819Z,9.27
2019-04-05T02:36:53.802Z,9.19
2019-04-05T02:37:53.829Z,9.22
2019-04-05T02:38:53.820Z,9.33
2019-04-05T02:39:53.789Z,9.24
2019-04-05T02:40:53.754Z,9.29
2019-04-05T02:41:53.743Z,9.22
2019-04-05T02:42:53.753Z,9.22
2019-04-05T02:43:53.740Z,9.18
2019-04-05T02:44:53.767Z,9.12
2019-04-05T02:45:53.707Z,9.08
2019-04-05T02:46:53.690Z,9.04
2019-04-05T02:47:53.733Z,9.01
2019-04-05T02:48:53.674Z,8.99
2019-04-05T02:49:53.679Z,8.89
2019-04-05T02:50:53.651Z,8.92
2019-04-05T02:51:53.639Z,8.93
2019-04-05T02:52:53.630Z,8.89
2019-04-05T02:53:53.614Z,8.83
2019-04-05T02:54:53.629Z,8.78
2019-04-05T02:55:53.601Z,8.80
2019-04-05T02:56:53.581Z,8.86
2019-04-05T02:57:53.573Z,8.81
2019-04-05T02:58:53.564Z,8.85
2019-04-05T02:59:53.566Z,8.80
2019-04-05T03:00:53.542Z,8.77
2019-04-05T03:01:53.564Z,8.78
2019-04-05T03:02:53.514Z,8.72
2019-04-05T03:03:53.529Z,8.74
2019-04-05T03:04:53.513Z,8.74
2019-04-05T03:05:53.493Z,8.62
2019-04-05T03:06:53.495Z,8.67
2019-04-05T03:07:53.473Z,8.57
2019-04-05T03:08:53.496Z,8.59
2019-04-05T03:09:53.454Z,8.50
2019-04-05T03:10:53.429Z,8.42
2019-04-05T03:11:53.417Z,8.46
2019-04-05T03:12:53.411Z,8.52
2019-04-05T03:13:53.399Z,8.38
2019-04-05T03:14:53.416Z,8.39
2019-04-05T03:15:53.387Z,8.34
2019-04-05T03:16:53.363Z,8.35
2019-04-05T03:17:53.380Z,8.24
2019-04-05T03:18:53.349Z,8.26
2019-04-05T03:19:53.360Z,8.26
2019-04-05T03:20:53.322Z,8.13
2019-04-05T03:21:53.327Z,8.13
2019-04-05T03:22:53.301Z,8.10
2019-04-05T03:23:53.291Z,7.99
2019-04-05T03:24:53.353Z,7.94
2019-04-05T03:25:53.270Z,7.95
2019-04-05T03:26:53.256Z,8.04
2019-04-05T03:27:53.261Z,7.99
2019-04-05T03:28:53.236Z,8.02
2019-04-05T03:29:53.224Z,7.99
2019-04-05T03:30:53.244Z,8.10
2019-04-05T03:31:53.206Z,8.16
2019-04-05T03:32:53.194Z,8.13
2019-04-05T03:33:53.220Z,8.12
2019-04-05T03:34:53.190Z,8.13
2019-04-05T03:35:53.180Z,8.23
2019-04-05T03:36:53.144Z,8.19
2019-04-05T03:37:53.138Z,8.23
2019-04-05T03:38:53.171Z,8.19
2019-04-05T03:39:53.117Z,8.16
2019-04-05T03:40:53.117Z,8.10
2019-04-05T03:41:53.100Z,8.16
2019-04-05T03:42:53.086Z,8.24
2019-04-05T03:43:53.069Z,8.28
2019-04-05T03:44:53.111Z,8.26
2019-04-05T03:45:53.078Z,8.23
2019-04-05T03:46:56.909Z,8.20
2019-04-05T03:47:53.030Z,8.17
2019-04-05T03:48:53.032Z,8.14
2019-04-05T03:49:53.017Z,8.10
2019-04-05T03:50:53.010Z,8.06
2019-04-05T03:51:52.985Z,8.14
2019-04-05T03:52:53.011Z,8.28
2019-04-05T03:53:52.969Z,8.32
2019-04-05T03:54:53.010Z,8.29
2019-04-05T03:55:52.968Z,8.14
2019-04-05T03:56:52.938Z,8.13
2019-04-05T03:57:52.919Z,8.16
2019-04-05T03:58:52.918Z,8.06
2019-04-05T03:59:52.956Z,8.05
2019-04-05T04:00:52.907Z,7.98
2019-04-05T04:01:52.878Z,7.95
2019-04-05T04:02:52.871Z,7.86
2019-04-05T04:03:52.870Z,7.86
2019-04-05T04:04:52.849Z,7.88
2019-04-05T04:05:53.045Z,7.80
2019-04-05T04:06:52.826Z,7.78
2019-04-05T04:07:52.827Z,7.81
2019-04-05T04:08:52.803Z,7.77
2019-04-05T04:09:52.797Z,7.83
2019-04-05T04:10:52.810Z,7.76
2019-04-05T04:11:52.778Z,7.78
2019-04-05T04:12:52.769Z,7.81
2019-04-05T04:13:52.769Z,7.76
2019-04-05T04:14:52.742Z,7.71
2019-04-05T04:15:52.741Z,7.76
2019-04-05T04:16:52.734Z,7.78
2019-04-05T04:17:52.702Z,7.78
2019-04-05T04:18:52.696Z,7.74
2019-04-05T04:19:52.682Z,7.76
2019-04-05T04:20:52.738Z,7.83
2019-04-05T04:21:52.675Z,7.77
2019-04-05T04:22:52.653Z,7.78
2019-04-05T04:23:52.641Z,7.73
2019-04-05T04:24:52.629Z,7.74
2019-04-05T04:25:52.618Z,7.64
2019-04-05T04:26:52.617Z,7.71
2019-04-05T04:27:52.674Z,7.61
2019-04-05T04:28:52.596Z,7.61
2019-04-05T04:29:52.575Z,7.55
2019-04-05T04:30:52.562Z,7.55
2019-04-05T04:31:52.578Z,7.52
2019-04-05T04:32:52.539Z,7.55
2019-04-05T04:33:52.537Z,7.57
2019-04-05T04:34:52.520Z,7.57
2019-04-05T04:35:52.509Z,7.60
2019-04-05T04:36:52.533Z,7.64
2019-04-05T04:37:52.490Z,7.68
2019-04-05T04:38:52.484Z,7.76
2019-04-05T04:39:52.474Z,7.74
2019-04-05T04:40:52.464Z,7.66
2019-04-05T04:41:52.466Z,7.76
2019-04-05T04:42:52.433Z,7.71
2019-04-05T04:43:52.429Z,7.77
2019-04-05T04:44:52.430Z,7.74
2019-04-05T04:45:52.406Z,7.77
2019-04-05T04:46:52.400Z,7.62
2019-04-05T04:47:52.384Z,7.77
2019-04-05T04:48:52.370Z,7.73
2019-04-05T04:49:52.356Z,7.74
2019-04-05T04:50:52.350Z,7.73
2019-04-05T04:51:52.365Z,7.83
2019-04-05T04:52:52.327Z,7.91
2019-04-05T04:53:52.313Z,7.84
2019-04-05T04:54:52.302Z,7.92
2019-04-05T04:55:52.287Z,7.88
2019-04-05T04:56:52.294Z,7.91
2019-04-05T04:57:52.293Z,7.98
2019-04-05T04:58:52.259Z,7.96
2019-04-05T04:59:52.251Z,7.99
2019-04-05T05:00:52.234Z,8.14
2019-04-05T05:01:52.265Z,8.17
2019-04-05T05:02:52.211Z,8.26
2019-04-05T05:03:52.247Z,8.39
2019-04-05T05:04:52.191Z,8.49
2019-04-05T05:05:52.188Z,8.49
2019-04-05T05:06:52.167Z,8.55
2019-04-05T05:07:52.173Z,8.60
2019-04-05T05:08:52.146Z,8.62
2019-04-05T05:09:52.137Z,8.57
2019-04-05T05:10:52.144Z,8.59
2019-04-05T05:11:52.129Z,8.80
2019-04-05T05:12:52.117Z,8.75
2019-04-05T05:13:52.091Z,8.80
2019-04-05T05:14:52.084Z,8.81
2019-04-05T05:15:52.070Z,8.83
2019-04-05T05:16:52.102Z,8.83
2019-04-05T05:17:58.633Z,8.89
2019-04-05T05:18:53.041Z,8.88
2019-04-05T05:19:52.038Z,8.92
2019-04-05T05:20:52.022Z,8.90
2019-04-05T05:21:52.009Z,8.92
2019-04-05T05:22:52.033Z,9.03
2019-04-05T05:23:51.983Z,9.12
2019-04-05T05:24:51.977Z,9.16
2019-04-05T05:25:51.965Z,9.14
2019-04-05T05:26:51.959Z,9.27
2019-04-05T05:27:51.955Z,9.32
2019-04-05T05:28:51.983Z,9.40
2019-04-05T05:29:51.923Z,9.32
2019-04-05T05:30:51.909Z,9.44
2019-04-05T05:31:51.909Z,9.47
2019-04-05T05:32:51.902Z,9.60
2019-04-05T05:33:51.881Z,9.54
2019-04-05T05:35:01.989Z,9.67
2019-04-05T05:35:52.856Z,9.80
2019-04-05T05:36:51.849Z,9.77
2019-04-05T05:37:51.851Z,9.83
2019-04-05T05:38:51.827Z,9.94
2019-04-05T05:39:51.815Z,9.93
2019-04-05T05:40:51.820Z,10.06
2019-04-05T05:41:51.819Z,10.14
2019-04-05T05:42:51.836Z,10.18
2019-04-05T05:43:51.766Z,10.10
2019-04-05T05:44:51.755Z,10.16
2019-04-05T05:45:51.763Z,10.23
2019-04-05T05:46:51.738Z,10.28
2019-04-05T05:47:52.596Z,10.28
2019-04-05T05:48:51.717Z,10.42
2019-04-05T05:49:51.709Z,10.54
2019-04-05T05:50:51.731Z,10.57
2019-04-05T05:51:51.679Z,10.65
2019-04-05T05:52:51.696Z,10.72
2019-04-05T05:53:51.660Z,10.80
2019-04-05T05:54:51.648Z,10.87
2019-04-05T05:55:51.642Z,11.01
2019-04-05T05:56:51.624Z,11.08
2019-04-05T05:57:54.333Z,11.08
2019-04-05T05:58:55.330Z,11.05
2019-04-05T05:59:52.595Z,11.22
2019-04-05T06:00:51.596Z,11.23
2019-04-05T06:01:51.574Z,11.33
2019-04-05T06:02:51.562Z,11.40
2019-04-05T06:03:51.580Z,11.51
2019-04-05T06:04:51.544Z,11.56
2019-04-05T06:06:03.704Z,11.70
2019-04-05T06:06:52.521Z,11.66
2019-04-05T06:07:51.505Z,11.80
2019-04-05T06:08:51.513Z,11.82
2019-04-05T06:09:51.514Z,11.91
2019-04-05T06:10:51.471Z,11.91
2019-04-05T06:11:51.475Z,12.03
2019-04-05T06:12:51.450Z,12.04
2019-04-05T06:13:51.456Z,12.15
2019-04-05T06:14:51.431Z,12.23
2019-04-05T06:15:51.456Z,12.26
2019-04-05T06:16:51.410Z,12.28
2019-04-05T06:18:03.847Z,12.43
2019-04-05T06:18:52.415Z,12.44
2019-04-05T06:19:51.387Z,12.54
2019-04-05T06:20:51.361Z,12.58
2019-04-05T06:21:51.368Z,12.68
2019-04-05T06:22:51.343Z,12.72
2019-04-05T06:23:51.349Z,12.84
2019-04-05T06:24:51.324Z,12.91
2019-04-05T06:25:51.307Z,12.99
2019-04-05T06:26:51.329Z,12.98
2019-04-05T06:27:51.303Z,13.06
2019-04-05T06:28:51.423Z,13.14
2019-04-05T06:29:51.270Z,13.20
2019-04-05T06:30:51.259Z,13.40
2019-04-05T06:31:51.247Z,13.67
2019-04-05T06:32:51.233Z,14.12
2019-04-05T06:33:51.247Z,14.74
2019-04-05T06:34:51.215Z,15.10
2019-04-05T06:35:51.199Z,15.54
2019-04-05T06:36:51.460Z,15.90
2019-04-05T06:37:51.179Z,16.17
2019-04-05T06:38:51.190Z,16.47
2019-04-05T06:39:51.204Z,16.91
2019-04-05T06:40:51.145Z,17.10
2019-04-05T06:41:51.135Z,17.45
2019-04-05T06:42:51.123Z,17.75
2019-04-05T06:43:51.132Z,18.08
2019-04-05T06:44:51.105Z,18.28
2019-04-05T06:45:51.254Z,18.57
2019-04-05T06:46:51.085Z,18.89
2019-04-05T06:47:51.103Z,19.13
2019-04-05T06:48:51.080Z,19.24
2019-04-05T06:49:51.066Z,19.35
2019-04-05T06:50:51.041Z,19.68
2019-04-05T06:51:51.039Z,19.87
2019-04-05T06:52:51.015Z,20.15
2019-04-05T06:53:51.036Z,20.23
2019-04-05T06:54:51.001Z,20.33
2019-04-05T06:55:50.977Z,20.39
2019-04-05T06:56:50.975Z,20.61
2019-04-05T06:57:50.961Z,20.85
2019-04-05T06:58:50.973Z,20.98
2019-04-05T06:59:50.984Z,21.18
2019-04-05T07:00:57.254Z,21.29
2019-04-05T07:01:51.940Z,21.47
2019-04-05T07:02:50.905Z,21.69
2019-04-05T07:03:50.910Z,21.84
2019-04-05T07:04:50.917Z,22.16
2019-04-05T07:05:50.872Z,22.40
2019-04-05T07:06:50.863Z,22.55
2019-04-05T07:07:50.878Z,22.67
2019-04-05T07:08:54.067Z,22.98
2019-04-05T07:09:50.846Z,22.96
2019-04-05T07:10:50.828Z,23.17
2019-04-05T07:11:50.814Z,23.29
2019-04-05T07:12:50.849Z,23.25
2019-04-05T07:13:50.795Z,23.36
2019-04-05T07:14:50.802Z,23.45
2019-04-05T07:15:50.796Z,23.54
2019-04-05T07:16:50.762Z,23.70
2019-04-05T07:17:50.754Z,24.18
2019-04-05T07:18:50.740Z,24.29
2019-04-05T07:19:50.739Z,24.55
2019-04-05T07:20:50.739Z,24.63
2019-04-05T07:21:50.706Z,24.76
2019-04-05T07:22:50.689Z,24.45
2019-04-05T07:23:50.715Z,24.63
2019-04-05T07:24:50.684Z,24.60
2019-04-05T07:25:50.659Z,24.21
2019-04-05T07:26:50.656Z,24.16
2019-04-05T07:27:50.635Z,23.76
2019-04-05T07:28:50.637Z,23.71
2019-04-05T07:29:50.650Z,23.71
2019-04-05T07:30:50.615Z,23.92
2019-04-05T07:31:50.596Z,23.81
2019-04-05T07:32:50.581Z,23.88
2019-04-05T07:33:50.574Z,23.89
2019-04-05T07:34:50.595Z,23.79
2019-04-05T07:35:50.551Z,23.74
2019-04-05T07:36:50.542Z,23.76
2019-04-05T07:37:50.534Z,23.84
2019-04-05T07:38:50.544Z,24.01
2019-04-05T07:39:50.541Z,24.21
2019-04-05T07:40:50.506Z,24.21
2019-04-05T07:41:50.506Z,24.03
2019-04-05T07:42:50.476Z,24.01
2019-04-05T07:43:50.469Z,23.85
2019-04-05T07:44:50.498Z,24.03
2019-04-05T07:45:50.450Z,23.96
2019-04-05T07:46:50.452Z,24.06
2019-04-05T07:47:50.427Z,24.15
2019-04-05T07:48:50.420Z,24.38
2019-04-05T07:49:50.405Z,24.38
2019-04-05T07:50:50.407Z,24.53
2019-04-05T07:51:50.379Z,24.60
2019-04-05T07:52:50.424Z,24.75
2019-04-05T07:53:50.365Z,24.62
2019-04-05T07:54:50.358Z,24.10
2019-04-05T07:55:50.359Z,24.25
2019-04-05T07:56:50.325Z,24.23
2019-04-05T07:57:50.327Z,24.40
2019-04-05T07:58:50.332Z,24.56
2019-04-05T07:59:50.305Z,24.16
2019-04-05T08:00:50.316Z,23.71
2019-04-05T08:01:50.276Z,23.73
2019-04-05T08:02:50.258Z,23.70
2019-04-05T08:03:50.249Z,23.74
2019-04-05T08:04:50.267Z,23.56
2019-04-05T08:05:50.245Z,23.17
2019-04-05T08:06:50.229Z,23.15
2019-04-05T08:07:50.215Z,22.85
2019-04-05T08:08:50.205Z,22.66
2019-04-05T08:09:50.183Z,22.48
2019-04-05T08:10:50.197Z,22.27
2019-04-05T08:11:50.167Z,22.21
2019-04-05T08:12:50.147Z,22.16
2019-04-05T08:13:50.137Z,22.28
2019-04-05T08:14:50.133Z,22.16
2019-04-05T08:15:50.140Z,21.98
2019-04-05T08:16:50.137Z,21.91
2019-04-05T08:17:50.128Z,21.78
2019-04-05T08:18:57.815Z,21.66
2019-04-05T08:19:51.074Z,21.60
2019-04-05T08:20:50.076Z,21.22
2019-04-05T08:21:50.063Z,20.98
2019-04-05T08:22:50.051Z,21.19
2019-04-05T08:23:50.038Z,21.22
2019-04-05T08:24:50.046Z,21.04
2019-04-05T08:25:50.027Z,21.11
2019-04-05T08:26:50.003Z,20.86
2019-04-05T08:27:49.990Z,20.63
2019-04-05T08:28:49.983Z,20.41
2019-04-05T08:29:49.968Z,20.17
2019-04-05T08:30:49.982Z,20.19
2019-04-05T08:31:49.951Z,20.18
2019-04-05T08:32:49.961Z,20.33
2019-04-05T08:33:49.930Z,20.02
2019-04-05T08:34:49.916Z,20.02
2019-04-05T08:35:49.942Z,19.62
2019-04-05T08:36:49.892Z,19.35
2019-04-05T08:37:49.886Z,19.04
2019-04-05T08:38:49.900Z,19.04
2019-04-05T08:39:49.857Z,19.00
2019-04-05T08:40:49.897Z,18.86
2019-04-05T08:41:49.852Z,18.49
2019-04-05T08:42:49.831Z,18.38
2019-04-05T08:43:49.828Z,18.24
2019-04-05T08:44:49.818Z,18.18
2019-04-05T08:45:49.826Z,17.91
2019-04-05T08:46:49.804Z,17.73
2019-04-05T08:47:49.773Z,17.78
2019-04-05T08:48:52.247Z,17.62
2019-04-05T08:49:49.803Z,17.68
2019-04-05T08:50:49.737Z,17.75
2019-04-05T08:51:49.742Z,17.76
2019-04-05T08:52:49.716Z,17.79
2019-04-05T08:53:49.709Z,17.78
2019-04-05T08:54:49.725Z,17.72
2019-04-05T08:55:49.695Z,17.76
2019-04-05T08:56:49.695Z,17.76
2019-04-05T08:57:49.708Z,17.63
2019-04-05T08:58:49.650Z,17.57
2019-04-05T08:59:49.639Z,17.38
2019-04-05T09:00:49.628Z,17.32
2019-04-05T09:01:49.632Z,17.13
2019-04-05T09:02:49.745Z,17.16
2019-04-05T09:03:49.728Z,17.10
2019-04-05T09:04:49.593Z,16.98
2019-04-05T09:05:49.579Z,16.94
2019-04-05T09:06:49.576Z,16.98
2019-04-05T09:07:49.557Z,16.94
2019-04-05T09:08:49.546Z,16.90
2019-04-05T09:09:49.535Z,16.92
2019-04-05T09:10:49.525Z,16.90
2019-04-05T09:11:49.546Z,16.77
2019-04-05T09:12:49.497Z,16.64
2019-04-05T09:13:49.494Z,16.69
2019-04-05T09:14:49.473Z,16.59
2019-04-05T09:15:49.460Z,16.65
2019-04-05T09:16:49.492Z,16.69
2019-04-05T09:17:49.443Z,16.67
2019-04-05T09:18:49.708Z,16.69
2019-04-05T09:19:49.435Z,16.64
2019-04-05T09:20:49.445Z,16.70
2019-04-05T09:21:49.397Z,16.57
2019-04-05T09:22:49.407Z,16.65
2019-04-05T09:23:49.378Z,16.70
2019-04-05T09:24:49.372Z,16.67
2019-04-05T09:25:49.395Z,16.72
2019-04-05T09:26:49.347Z,16.83
2019-04-05T09:27:49.359Z,16.82
2019-04-05T09:28:49.319Z,16.80
2019-04-05T09:29:49.310Z,16.80
2019-04-05T09:30:51.666Z,16.83
2019-04-05T09:31:49.331Z,16.84
2019-04-05T09:32:49.279Z,16.76
2019-04-05T09:33:49.266Z,16.61
2019-04-05T09:34:49.270Z,16.59
2019-04-05T09:35:49.246Z,16.28
2019-04-05T09:36:49.253Z,16.09
2019-04-05T09:37:49.243Z,15.98
2019-04-05T09:38:49.216Z,15.83
2019-04-05T09:39:49.203Z,15.77
2019-04-05T09:40:49.193Z,15.70
2019-04-05T09:41:49.197Z,15.66
2019-04-05T09:42:49.171Z,15.60
2019-04-05T09:43:49.178Z,15.51
2019-04-05T09:44:49.157Z,15.41
2019-04-05T09:45:49.146Z,15.41
2019-04-05T09:46:51.180Z,15.15
2019-04-05T09:47:49.120Z,15.04
2019-04-05T09:48:49.107Z,15.05
2019-04-05T09:49:49.098Z,15.04
2019-04-05T09:50:49.095Z,15.10
2019-04-05T09:51:49.087Z,15.05
2019-04-05T09:52:49.069Z,15.04
2019-04-05T09:53:49.055Z,15.08
2019-04-05T09:54:49.042Z,15.04
2019-04-05T09:55:49.028Z,14.90
2019-04-05T09:56:49.057Z,14.82
2019-04-05T09:57:49.029Z,14.92
2019-04-05T09:58:49.018Z,14.82
2019-04-05T09:59:49.004Z,14.74
2019-04-05T10:00:48.994Z,14.82
2019-04-05T10:01:48.987Z,14.86
2019-04-05T10:02:48.952Z,14.78
2019-04-05T10:03:48.943Z,14.82
2019-04-05T10:04:48.934Z,14.79
2019-04-05T10:05:48.920Z,14.82
2019-04-05T10:06:48.952Z,14.77
2019-04-05T10:07:55.385Z,14.82
2019-04-05T10:08:49.903Z,14.71
2019-04-05T10:09:50.400Z,14.66
2019-04-05T10:10:48.870Z,14.66
2019-04-05T10:11:48.881Z,14.77
2019-04-05T10:12:48.850Z,14.71
2019-04-05T10:13:48.846Z,14.67
2019-04-05T10:14:48.846Z,14.63
2019-04-05T10:15:48.818Z,14.83
2019-04-05T10:16:48.820Z,14.71
2019-04-05T10:17:48.794Z,14.78
2019-04-05T10:18:51.417Z,14.83
2019-04-05T10:19:50.261Z,14.83
2019-04-05T10:20:48.784Z,14.85
2019-04-05T10:21:48.762Z,14.83
2019-04-05T10:22:48.736Z,14.69
2019-04-05T10:23:48.729Z,14.59
2019-04-05T10:24:48.714Z,14.61
2019-04-05T10:25:48.735Z,14.59
2019-04-05T10:26:48.766Z,14.63
2019-04-05T10:27:48.697Z,14.61
2019-04-05T10:28:48.672Z,14.59
2019-04-05T10:29:49.609Z,14.63
2019-04-05T10:30:49.595Z,14.56
2019-04-05T10:31:48.675Z,14.52
2019-04-05T10:32:48.632Z,14.52
2019-04-05T10:33:48.649Z,14.59
2019-04-05T10:34:48.607Z,14.56
2019-04-05T10:35:48.594Z,14.58
2019-04-05T10:36:48.585Z,14.71
2019-04-05T10:37:48.596Z,14.59
2019-04-05T10:38:48.561Z,14.61
2019-04-05T10:39:48.570Z,14.56
2019-04-05T10:40:48.543Z,14.48
2019-04-05T10:41:48.531Z,14.52
2019-04-05T10:42:48.537Z,14.59
2019-04-05T10:43:48.508Z,14.59
2019-04-05T10:44:48.498Z,14.46
2019-04-05T10:45:48.497Z,14.59
2019-04-05T10:46:48.585Z,14.48
2019-04-05T10:47:48.493Z,14.49
2019-04-05T10:48:48.460Z,14.55
2019-04-05T10:49:48.468Z,14.64
2019-04-05T10:50:48.441Z,14.70
2019-04-05T10:51:48.430Z,14.63
2019-04-05T10:52:48.432Z,14.58
2019-04-05T10:53:48.409Z,14.58
2019-04-05T10:54:48.427Z,14.71
2019-04-05T10:55:48.398Z,14.82
2019-04-05T10:56:48.405Z,14.93
2019-04-05T10:57:48.378Z,14.90
2019-04-05T10:58:48.349Z,14.87
2019-04-05T10:59:48.350Z,14.95
2019-04-05T11:00:48.326Z,15.03
2019-04-05T11:01:48.317Z,15.04
2019-04-05T11:02:48.321Z,15.10
2019-04-05T11:03:48.292Z,15.15
2019-04-05T11:04:48.300Z,15.25
2019-04-05T11:05:49.446Z,15.35
2019-04-05T11:06:48.258Z,15.36
2019-04-05T11:07:48.263Z,15.27
2019-04-05T11:08:48.250Z,15.12
2019-04-05T11:09:48.229Z,15.12
2019-04-05T11:10:48.222Z,15.12
2019-04-05T11:11:48.205Z,15.17
2019-04-05T11:12:49.872Z,15.12
2019-04-05T11:13:48.185Z,15.17
2019-04-05T11:14:48.182Z,15.15
2019-04-05T11:15:48.162Z,15.25
2019-04-05T11:16:57.939Z,15.17
2019-04-05T11:17:49.173Z,15.20
2019-04-05T11:18:48.134Z,15.25
2019-04-05T11:19:48.120Z,15.36
2019-04-05T11:20:49.661Z,15.54
2019-04-05T11:21:52.015Z,15.54
2019-04-05T11:22:50.082Z,15.59
2019-04-05T11:23:48.074Z,15.59
2019-04-05T11:24:48.064Z,15.73
2019-04-05T11:25:48.078Z,15.85
2019-04-05T11:26:48.065Z,15.85
2019-04-05T11:27:48.042Z,15.91
2019-04-05T11:28:48.015Z,16.02
2019-04-05T11:29:48.009Z,16.18
2019-04-05T11:30:48.000Z,16.14
2019-04-05T11:31:57.125Z,16.21
2019-04-05T11:32:49.039Z,16.36
2019-04-05T11:33:47.965Z,16.47
2019-04-05T11:34:47.956Z,16.43
2019-04-05T11:35:47.942Z,16.43
2019-04-05T11:36:47.938Z,16.61
2019-04-05T11:37:50.690Z,16.46
2019-04-05T11:38:50.289Z,16.42
2019-04-05T11:39:48.629Z,16.52
2019-04-05T11:40:47.906Z,16.64
2019-04-05T11:41:47.876Z,16.70
2019-04-05T11:42:47.882Z,16.80
2019-04-05T11:43:47.852Z,16.80
2019-04-05T11:44:47.872Z,16.90
2019-04-05T11:45:48.655Z,17.06
2019-04-05T11:46:49.388Z,17.14
2019-04-05T11:47:47.826Z,17.22
2019-04-05T11:48:47.804Z,17.37
2019-04-05T11:49:47.791Z,17.25
2019-04-05T11:50:47.794Z,17.24
2019-04-05T11:51:47.766Z,17.37
2019-04-05T11:52:47.772Z,17.45
2019-04-05T11:53:47.750Z,17.41
2019-04-05T11:54:47.734Z,17.75
2019-04-05T11:55:47.720Z,17.96
2019-04-05T11:56:47.725Z,18.20
2019-04-05T11:57:47.719Z,18.41
2019-04-05T11:58:48.736Z,18.31
2019-04-05T11:59:48.804Z,18.30
2019-04-05T12:00:47.668Z,18.30
2019-04-05T12:01:47.654Z,18.48
2019-04-05T12:02:47.679Z,18.71
2019-04-05T12:03:47.667Z,18.88
2019-04-05T12:04:47.643Z,19.07
2019-04-05T12:05:47.624Z,19.19
2019-04-05T12:06:47.632Z,19.17
2019-04-05T12:07:47.592Z,19.08
2019-04-05T12:08:47.618Z,19.16
2019-04-05T12:09:48.004Z,19.49
2019-04-05T12:10:47.565Z,19.39
2019-04-05T12:11:47.549Z,19.42
2019-04-05T12:12:47.553Z,19.49
2019-04-05T12:13:47.858Z,19.50
2019-04-05T12:14:47.518Z,19.71
2019-04-05T12:15:47.513Z,19.52
2019-04-05T12:16:47.495Z,19.52
2019-04-05T12:17:47.516Z,19.53
2019-04-05T12:18:47.497Z,19.59
2019-04-05T12:19:47.464Z,19.44
2019-04-05T12:20:55.318Z,19.62
2019-04-05T12:21:48.466Z,19.64
2019-04-05T12:22:47.429Z,19.82
2019-04-05T12:23:47.457Z,20.12
2019-04-05T12:24:47.709Z,20.42
2019-04-05T12:25:47.405Z,20.67
2019-04-05T12:26:47.392Z,20.95
2019-04-05T12:27:47.385Z,21.01
2019-04-05T12:28:47.387Z,20.93
2019-04-05T12:29:47.359Z,21.29
2019-04-05T12:30:47.349Z,21.32
2019-04-05T12:31:47.340Z,21.41
2019-04-05T12:32:48.904Z,21.63
2019-04-05T12:33:51.350Z,22.16
2019-04-05T12:34:47.314Z,22.23
2019-04-05T12:35:47.307Z,22.59
2019-04-05T12:36:47.282Z,22.89
2019-04-05T12:37:50.481Z,23.23
2019-04-05T12:38:47.295Z,23.37
2019-04-05T12:39:47.251Z,23.67
2019-04-05T12:40:47.260Z,23.71
2019-04-05T12:41:47.245Z,23.76
2019-04-05T12:42:47.221Z,23.74
2019-04-05T12:43:47.239Z,23.89
2019-04-05T12:44:47.197Z,24.15
2019-04-05T12:45:47.200Z,24.22
2019-04-05T12:46:47.187Z,24.36
2019-04-05T12:47:47.185Z,24.51
2019-04-05T12:48:47.173Z,24.58
2019-04-05T12:49:47.166Z,24.55
2019-04-05T12:50:47.145Z,24.40
2019-04-05T12:51:47.122Z,24.28
2019-04-05T12:52:47.117Z,24.37
2019-04-05T12:53:47.115Z,24.40
2019-04-05T12:54:50.689Z,24.44
2019-04-05T12:55:48.080Z,24.47
2019-04-05T12:56:47.082Z,24.34
2019-04-05T12:57:48.465Z,24.53
2019-04-05T12:58:47.109Z,24.65
2019-04-05T12:59:47.040Z,24.82